sensor_id;sensor_type;location;lat;lon;timestamp;P1;durP1;ratioP1;P2;durP2;ratioP2
32814;SDS011;19165;48.182;16.374;2022-08-19T00:01:34;11.50;;;4.93;;
32814;SDS011;19165;48.182;16.374;2022-08-19T00:04:04;14.70;;;5.05;;
32814;SDS011;19165;48.182;16.374;2022-08-19T00:06:33;12.80;;;5.10;;
32814;SDS011;19165;48.182;16.374;2022-08-19T00:09:00;18.50;;;5.10;;
32814;SDS011;19165;48.182;16.374;2022-08-19T00:11:29;13.00;;;4.78;;
32814;SDS011;19165;48.182;16.374;2022-08-19T00:13:55;11.20;;;4.35;;
32814;SDS011;19165;48.182;16.374;2022-08-19T00:16:22;11.32;;;4.38;;
32814;SDS011;19165;48.182;16.374;2022-08-19T00:18:49;17.20;;;4.20;;
32814;SDS011;19165;48.182;16.374;2022-08-19T00:21:15;11.23;;;3.97;;
32814;SDS011;19165;48.182;16.374;2022-08-19T00:23:41;16.38;;;4.90;;
32814;SDS011;19165;48.182;16.374;2022-08-19T00:26:08;10.30;;;4.07;;
32814;SDS011;19165;48.182;16.374;2022-08-19T00:28:36;17.00;;;3.63;;
32814;SDS011;19165;48.182;16.374;2022-08-19T00:31:03;11.48;;;4.30;;
32814;SDS011;19165;48.182;16.374;2022-08-19T00:33:30;7.43;;;3.38;;
32814;SDS011;19165;48.182;16.374;2022-08-19T00:35:59;9.32;;;4.07;;
32814;SDS011;19165;48.182;16.374;2022-08-19T00:38:26;9.68;;;4.18;;
32814;SDS011;19165;48.182;16.374;2022-08-19T00:40:53;11.05;;;3.72;;
32814;SDS011;19165;48.182;16.374;2022-08-19T00:43:19;11.98;;;4.07;;
32814;SDS011;19165;48.182;16.374;2022-08-19T00:45:48;10.73;;;4.10;;
32814;SDS011;19165;48.182;16.374;2022-08-19T00:48:15;12.00;;;4.07;;
32814;SDS011;19165;48.182;16.374;2022-08-19T00:50:42;12.13;;;3.75;;
32814;SDS011;19165;48.182;16.374;2022-08-19T00:53:10;15.02;;;4.00;;
32814;SDS011;19165;48.182;16.374;2022-08-19T00:55:37;9.82;;;4.07;;
32814;SDS011;19165;48.182;16.374;2022-08-19T00:58:06;11.23;;;3.80;;
32814;SDS011;19165;48.182;16.374;2022-08-19T01:00:35;11.77;;;3.60;;
32814;SDS011;19165;48.182;16.374;2022-08-19T01:03:03;12.18;;;4.30;;
32814;SDS011;19165;48.182;16.374;2022-08-19T01:05:31;9.10;;;3.60;;
32814;SDS011;19165;48.182;16.374;2022-08-19T01:07:58;12.50;;;4.28;;
32814;SDS011;19165;48.182;16.374;2022-08-19T01:10:29;14.48;;;4.78;;
32814;SDS011;19165;48.182;16.374;2022-08-19T01:12:59;8.95;;;4.20;;
32814;SDS011;19165;48.182;16.374;2022-08-19T01:15:27;9.23;;;3.55;;
32814;SDS011;19165;48.182;16.374;2022-08-19T01:17:57;7.05;;;3.72;;
32814;SDS011;19165;48.182;16.374;2022-08-19T01:20:26;9.48;;;3.72;;
32814;SDS011;19165;48.182;16.374;2022-08-19T01:22:54;9.38;;;4.07;;
32814;SDS011;19165;48.182;16.374;2022-08-19T01:25:22;14.60;;;3.70;;
32814;SDS011;19165;48.182;16.374;2022-08-19T01:27:52;10.23;;;3.85;;
32814;SDS011;19165;48.182;16.374;2022-08-19T01:30:20;12.18;;;3.72;;
32814;SDS011;19165;48.182;16.374;2022-08-19T01:32:48;13.10;;;4.05;;
32814;SDS011;19165;48.182;16.374;2022-08-19T01:35:15;11.43;;;4.80;;
32814;SDS011;19165;48.182;16.374;2022-08-19T01:37:43;9.00;;;4.00;;
32814;SDS011;19165;48.182;16.374;2022-08-19T01:40:12;12.98;;;3.72;;
32814;SDS011;19165;48.182;16.374;2022-08-19T01:42:38;10.70;;;3.53;;
32814;SDS011;19165;48.182;16.374;2022-08-19T01:45:04;9.90;;;4.03;;
32814;SDS011;19165;48.182;16.374;2022-08-19T01:47:33;8.38;;;3.90;;
32814;SDS011;19165;48.182;16.374;2022-08-19T01:50:00;13.70;;;4.47;;
32814;SDS011;19165;48.182;16.374;2022-08-19T01:52:26;11.13;;;4.15;;
32814;SDS011;19165;48.182;16.374;2022-08-19T01:54:52;12.85;;;3.33;;
32814;SDS011;19165;48.182;16.374;2022-08-19T01:57:20;7.88;;;3.78;;
32814;SDS011;19165;48.182;16.374;2022-08-19T01:59:45;13.65;;;3.97;;
32814;SDS011;19165;48.182;16.374;2022-08-19T02:02:11;12.70;;;4.03;;
32814;SDS011;19165;48.182;16.374;2022-08-19T02:04:38;9.18;;;4.15;;
32814;SDS011;19165;48.182;16.374;2022-08-19T02:07:05;11.65;;;3.83;;
32814;SDS011;19165;48.182;16.374;2022-08-19T02:09:31;11.55;;;3.78;;
32814;SDS011;19165;48.182;16.374;2022-08-19T02:11:57;15.15;;;4.25;;
32814;SDS011;19165;48.182;16.374;2022-08-19T02:14:25;10.80;;;3.88;;
32814;SDS011;19165;48.182;16.374;2022-08-19T02:16:51;11.88;;;3.75;;
32814;SDS011;19165;48.182;16.374;2022-08-19T02:19:17;10.13;;;3.75;;
32814;SDS011;19165;48.182;16.374;2022-08-19T02:21:42;11.45;;;3.65;;
32814;SDS011;19165;48.182;16.374;2022-08-19T02:24:08;13.43;;;4.10;;
32814;SDS011;19165;48.182;16.374;2022-08-19T02:26:35;13.82;;;3.97;;
32814;SDS011;19165;48.182;16.374;2022-08-19T02:29:02;13.23;;;3.92;;
32814;SDS011;19165;48.182;16.374;2022-08-19T02:31:30;8.43;;;3.22;;
32814;SDS011;19165;48.182;16.374;2022-08-19T02:33:56;7.82;;;3.15;;
32814;SDS011;19165;48.182;16.374;2022-08-19T02:36:22;9.85;;;3.22;;
32814;SDS011;19165;48.182;16.374;2022-08-19T02:38:49;8.52;;;3.50;;
32814;SDS011;19165;48.182;16.374;2022-08-19T02:41:16;8.95;;;4.00;;
32814;SDS011;19165;48.182;16.374;2022-08-19T02:43:44;7.63;;;3.67;;
32814;SDS011;19165;48.182;16.374;2022-08-19T02:46:14;9.50;;;3.45;;
32814;SDS011;19165;48.182;16.374;2022-08-19T02:48:47;17.75;;;3.80;;
32814;SDS011;19165;48.182;16.374;2022-08-19T02:51:15;24.92;;;4.80;;
32814;SDS011;19165;48.182;16.374;2022-08-19T02:53:42;12.65;;;4.03;;
32814;SDS011;19165;48.182;16.374;2022-08-19T02:56:08;7.10;;;4.10;;
32814;SDS011;19165;48.182;16.374;2022-08-19T02:58:34;9.35;;;3.90;;
32814;SDS011;19165;48.182;16.374;2022-08-19T03:01:00;11.00;;;4.10;;
32814;SDS011;19165;48.182;16.374;2022-08-19T03:03:26;8.15;;;4.03;;
32814;SDS011;19165;48.182;16.374;2022-08-19T03:06:01;8.27;;;4.00;;
32814;SDS011;19165;48.182;16.374;2022-08-19T03:08:29;8.70;;;4.30;;
32814;SDS011;19165;48.182;16.374;2022-08-19T03:10:55;14.68;;;4.10;;
32814;SDS011;19165;48.182;16.374;2022-08-19T03:13:21;6.80;;;3.90;;
32814;SDS011;19165;48.182;16.374;2022-08-19T03:15:48;8.52;;;3.75;;
32814;SDS011;19165;48.182;16.374;2022-08-19T03:18:14;7.65;;;3.83;;
32814;SDS011;19165;48.182;16.374;2022-08-19T03:20:41;10.63;;;4.38;;
32814;SDS011;19165;48.182;16.374;2022-08-19T03:23:09;9.27;;;5.07;;
32814;SDS011;19165;48.182;16.374;2022-08-19T03:25:38;8.85;;;4.35;;
32814;SDS011;19165;48.182;16.374;2022-08-19T03:28:07;10.30;;;4.50;;
32814;SDS011;19165;48.182;16.374;2022-08-19T03:30:33;14.73;;;4.55;;
32814;SDS011;19165;48.182;16.374;2022-08-19T03:32:59;9.98;;;3.97;;
32814;SDS011;19165;48.182;16.374;2022-08-19T03:35:25;15.13;;;4.70;;
32814;SDS011;19165;48.182;16.374;2022-08-19T03:37:51;12.35;;;4.47;;
32814;SDS011;19165;48.182;16.374;2022-08-19T03:40:19;10.70;;;4.43;;
32814;SDS011;19165;48.182;16.374;2022-08-19T03:42:45;13.40;;;4.60;;
32814;SDS011;19165;48.182;16.374;2022-08-19T03:45:11;12.65;;;4.70;;
32814;SDS011;19165;48.182;16.374;2022-08-19T03:47:38;13.73;;;4.90;;
32814;SDS011;19165;48.182;16.374;2022-08-19T03:50:04;15.30;;;4.80;;
32814;SDS011;19165;48.182;16.374;2022-08-19T03:52:30;11.30;;;4.90;;
32814;SDS011;19165;48.182;16.374;2022-08-19T03:54:56;11.98;;;4.43;;
32814;SDS011;19165;48.182;16.374;2022-08-19T03:57:24;7.55;;;4.60;;
32814;SDS011;19165;48.182;16.374;2022-08-19T03:59:49;11.70;;;4.35;;
32814;SDS011;19165;48.182;16.374;2022-08-19T04:02:15;13.30;;;4.03;;
32814;SDS011;19165;48.182;16.374;2022-08-19T04:04:42;13.60;;;4.18;;
32814;SDS011;19165;48.182;16.374;2022-08-19T04:07:09;11.18;;;4.63;;
32814;SDS011;19165;48.182;16.374;2022-08-19T04:09:37;15.63;;;5.05;;
32814;SDS011;19165;48.182;16.374;2022-08-19T04:12:04;12.27;;;5.10;;
32814;SDS011;19165;48.182;16.374;2022-08-19T04:14:32;15.05;;;4.70;;
32814;SDS011;19165;48.182;16.374;2022-08-19T04:16:59;12.98;;;4.93;;
32814;SDS011;19165;48.182;16.374;2022-08-19T04:19:26;11.95;;;4.15;;
32814;SDS011;19165;48.182;16.374;2022-08-19T04:21:54;12.77;;;4.40;;
32814;SDS011;19165;48.182;16.374;2022-08-19T04:24:20;13.15;;;4.30;;
32814;SDS011;19165;48.182;16.374;2022-08-19T04:26:47;10.00;;;4.90;;
32814;SDS011;19165;48.182;16.374;2022-08-19T04:29:14;9.90;;;4.07;;
32814;SDS011;19165;48.182;16.374;2022-08-19T04:31:42;11.68;;;4.28;;
32814;SDS011;19165;48.182;16.374;2022-08-19T04:34:10;12.23;;;4.70;;
32814;SDS011;19165;48.182;16.374;2022-08-19T04:36:39;13.57;;;4.53;;
32814;SDS011;19165;48.182;16.374;2022-08-19T04:39:08;11.82;;;4.00;;
32814;SDS011;19165;48.182;16.374;2022-08-19T04:41:36;13.57;;;4.05;;
32814;SDS011;19165;48.182;16.374;2022-08-19T04:44:21;7.80;;;4.00;;
32814;SDS011;19165;48.182;16.374;2022-08-19T04:46:49;9.75;;;4.60;;
32814;SDS011;19165;48.182;16.374;2022-08-19T04:49:16;25.83;;;5.85;;
32814;SDS011;19165;48.182;16.374;2022-08-19T04:51:45;102.63;;;10.98;;
32814;SDS011;19165;48.182;16.374;2022-08-19T04:54:13;37.55;;;6.35;;
32814;SDS011;19165;48.182;16.374;2022-08-19T04:56:39;24.98;;;5.07;;
32814;SDS011;19165;48.182;16.374;2022-08-19T04:59:05;16.58;;;5.22;;
32814;SDS011;19165;48.182;16.374;2022-08-19T05:01:33;16.25;;;5.13;;
32814;SDS011;19165;48.182;16.374;2022-08-19T05:04:03;14.73;;;4.93;;
32814;SDS011;19165;48.182;16.374;2022-08-19T05:06:31;12.40;;;4.63;;
32814;SDS011;19165;48.182;16.374;2022-08-19T05:08:59;16.88;;;5.07;;
32814;SDS011;19165;48.182;16.374;2022-08-19T05:11:25;10.05;;;4.53;;
32814;SDS011;19165;48.182;16.374;2022-08-19T05:13:53;32.28;;;5.75;;
32814;SDS011;19165;48.182;16.374;2022-08-19T05:16:21;23.35;;;5.63;;
32814;SDS011;19165;48.182;16.374;2022-08-19T05:18:48;24.23;;;5.28;;
32814;SDS011;19165;48.182;16.374;2022-08-19T05:21:35;17.90;;;5.55;;
32814;SDS011;19165;48.182;16.374;2022-08-19T05:24:21;24.63;;;6.70;;
32814;SDS011;19165;48.182;16.374;2022-08-19T05:26:49;23.63;;;6.78;;
32814;SDS011;19165;48.182;16.374;2022-08-19T05:29:18;25.38;;;6.93;;
32814;SDS011;19165;48.182;16.374;2022-08-19T05:31:46;13.75;;;7.38;;
32814;SDS011;19165;48.182;16.374;2022-08-19T05:34:16;19.55;;;8.90;;
32814;SDS011;19165;48.182;16.374;2022-08-19T05:36:44;14.77;;;7.50;;
32814;SDS011;19165;48.182;16.374;2022-08-19T05:39:11;17.38;;;8.20;;
32814;SDS011;19165;48.182;16.374;2022-08-19T05:41:40;12.20;;;8.93;;
32814;SDS011;19165;48.182;16.374;2022-08-19T05:44:07;11.38;;;7.65;;
32814;SDS011;19165;48.182;16.374;2022-08-19T05:46:34;13.15;;;8.32;;
32814;SDS011;19165;48.182;16.374;2022-08-19T05:49:00;32.15;;;9.02;;
32814;SDS011;19165;48.182;16.374;2022-08-19T05:51:26;26.45;;;9.73;;
32814;SDS011;19165;48.182;16.374;2022-08-19T05:53:54;21.80;;;9.52;;
32814;SDS011;19165;48.182;16.374;2022-08-19T05:56:20;28.42;;;9.43;;
32814;SDS011;19165;48.182;16.374;2022-08-19T05:58:46;24.40;;;9.75;;
32814;SDS011;19165;48.182;16.374;2022-08-19T06:01:13;53.10;;;11.25;;
32814;SDS011;19165;48.182;16.374;2022-08-19T06:03:40;27.23;;;10.00;;
32814;SDS011;19165;48.182;16.374;2022-08-19T06:06:07;40.05;;;9.80;;
32814;SDS011;19165;48.182;16.374;2022-08-19T06:08:34;20.55;;;10.00;;
32814;SDS011;19165;48.182;16.374;2022-08-19T06:11:13;18.98;;;9.65;;
32814;SDS011;19165;48.182;16.374;2022-08-19T06:13:41;12.07;;;7.40;;
32814;SDS011;19165;48.182;16.374;2022-08-19T06:16:08;13.60;;;6.93;;
32814;SDS011;19165;48.182;16.374;2022-08-19T06:18:34;13.27;;;8.57;;
32814;SDS011;19165;48.182;16.374;2022-08-19T06:21:00;15.80;;;8.27;;
32814;SDS011;19165;48.182;16.374;2022-08-19T06:23:29;14.75;;;7.20;;
32814;SDS011;19165;48.182;16.374;2022-08-19T06:25:55;11.40;;;6.95;;
32814;SDS011;19165;48.182;16.374;2022-08-19T06:28:22;13.98;;;8.55;;
32814;SDS011;19165;48.182;16.374;2022-08-19T06:30:48;13.95;;;8.77;;
32814;SDS011;19165;48.182;16.374;2022-08-19T06:33:15;15.85;;;8.13;;
32814;SDS011;19165;48.182;16.374;2022-08-19T06:35:41;14.35;;;8.05;;
32814;SDS011;19165;48.182;16.374;2022-08-19T06:38:07;17.20;;;8.23;;
32814;SDS011;19165;48.182;16.374;2022-08-19T06:40:34;11.85;;;7.72;;
32814;SDS011;19165;48.182;16.374;2022-08-19T06:43:00;12.32;;;7.85;;
32814;SDS011;19165;48.182;16.374;2022-08-19T06:45:29;11.18;;;7.40;;
32814;SDS011;19165;48.182;16.374;2022-08-19T06:47:55;13.35;;;7.13;;
32814;SDS011;19165;48.182;16.374;2022-08-19T06:50:21;10.88;;;7.35;;
32814;SDS011;19165;48.182;16.374;2022-08-19T06:52:47;12.88;;;7.63;;
32814;SDS011;19165;48.182;16.374;2022-08-19T06:55:14;24.98;;;7.63;;
32814;SDS011;19165;48.182;16.374;2022-08-19T06:57:40;18.48;;;7.40;;
32814;SDS011;19165;48.182;16.374;2022-08-19T07:00:07;10.43;;;6.45;;
32814;SDS011;19165;48.182;16.374;2022-08-19T07:02:42;12.15;;;7.07;;
32814;SDS011;19165;48.182;16.374;2022-08-19T07:05:09;12.90;;;6.63;;
32814;SDS011;19165;48.182;16.374;2022-08-19T07:07:35;10.07;;;6.13;;
32814;SDS011;19165;48.182;16.374;2022-08-19T07:10:01;10.57;;;6.03;;
32814;SDS011;19165;48.182;16.374;2022-08-19T07:12:29;11.15;;;6.60;;
32814;SDS011;19165;48.182;16.374;2022-08-19T07:14:58;10.95;;;6.70;;
32814;SDS011;19165;48.182;16.374;2022-08-19T07:17:25;13.70;;;6.13;;
32814;SDS011;19165;48.182;16.374;2022-08-19T07:19:52;12.02;;;7.13;;
32814;SDS011;19165;48.182;16.374;2022-08-19T07:22:18;14.80;;;6.50;;
32814;SDS011;19165;48.182;16.374;2022-08-19T07:24:45;12.02;;;6.15;;
32814;SDS011;19165;48.182;16.374;2022-08-19T07:27:13;10.15;;;6.20;;
32814;SDS011;19165;48.182;16.374;2022-08-19T07:29:39;13.85;;;6.60;;
32814;SDS011;19165;48.182;16.374;2022-08-19T07:32:06;10.82;;;6.25;;
32814;SDS011;19165;48.182;16.374;2022-08-19T07:34:34;7.38;;;6.32;;
32814;SDS011;19165;48.182;16.374;2022-08-19T07:37:04;13.02;;;7.07;;
32814;SDS011;19165;48.182;16.374;2022-08-19T07:39:31;10.20;;;6.55;;
32814;SDS011;19165;48.182;16.374;2022-08-19T07:42:00;9.40;;;5.90;;
32814;SDS011;19165;48.182;16.374;2022-08-19T07:44:29;15.23;;;6.25;;
32814;SDS011;19165;48.182;16.374;2022-08-19T07:46:55;17.35;;;6.90;;
32814;SDS011;19165;48.182;16.374;2022-08-19T07:49:23;13.25;;;6.15;;
32814;SDS011;19165;48.182;16.374;2022-08-19T07:51:50;15.68;;;6.43;;
32814;SDS011;19165;48.182;16.374;2022-08-19T07:54:20;11.93;;;6.15;;
32814;SDS011;19165;48.182;16.374;2022-08-19T07:56:48;10.10;;;6.10;;
32814;SDS011;19165;48.182;16.374;2022-08-19T07:59:16;13.63;;;6.03;;
32814;SDS011;19165;48.182;16.374;2022-08-19T08:01:42;12.20;;;6.15;;
32814;SDS011;19165;48.182;16.374;2022-08-19T08:04:08;8.52;;;5.68;;
32814;SDS011;19165;48.182;16.374;2022-08-19T08:06:54;19.95;;;11.05;;
32814;SDS011;19165;48.182;16.374;2022-08-19T08:09:41;12.95;;;7.45;;
32814;SDS011;19165;48.182;16.374;2022-08-19T08:12:10;10.85;;;4.70;;
32814;SDS011;19165;48.182;16.374;2022-08-19T08:14:40;9.35;;;4.72;;
32814;SDS011;19165;48.182;16.374;2022-08-19T08:17:09;10.30;;;5.20;;
32814;SDS011;19165;48.182;16.374;2022-08-19T08:19:36;7.35;;;4.78;;
32814;SDS011;19165;48.182;16.374;2022-08-19T08:22:02;7.28;;;4.28;;
32814;SDS011;19165;48.182;16.374;2022-08-19T08:24:33;8.93;;;4.85;;
32814;SDS011;19165;48.182;16.374;2022-08-19T08:27:01;10.57;;;4.97;;
32814;SDS011;19165;48.182;16.374;2022-08-19T08:29:29;8.98;;;4.82;;
32814;SDS011;19165;48.182;16.374;2022-08-19T08:31:56;10.40;;;4.63;;
32814;SDS011;19165;48.182;16.374;2022-08-19T08:34:22;10.80;;;4.55;;
32814;SDS011;19165;48.182;16.374;2022-08-19T08:36:49;17.48;;;4.88;;
32814;SDS011;19165;48.182;16.374;2022-08-19T08:39:17;8.77;;;4.32;;
32814;SDS011;19165;48.182;16.374;2022-08-19T08:41:46;14.65;;;5.15;;
32814;SDS011;19165;48.182;16.374;2022-08-19T08:44:20;8.80;;;4.78;;
32814;SDS011;19165;48.182;16.374;2022-08-19T08:46:49;12.55;;;4.90;;
32814;SDS011;19165;48.182;16.374;2022-08-19T08:49:25;11.13;;;5.22;;
32814;SDS011;19165;48.182;16.374;2022-08-19T08:51:59;11.18;;;4.80;;
32814;SDS011;19165;48.182;16.374;2022-08-19T08:56:57;6.50;;;5.10;;
32814;SDS011;19165;48.182;16.374;2022-08-19T08:59:25;8.10;;;5.07;;
32814;SDS011;19165;48.182;16.374;2022-08-19T09:01:56;11.10;;;5.57;;
32814;SDS011;19165;48.182;16.374;2022-08-19T09:04:22;7.35;;;5.07;;
32814;SDS011;19165;48.182;16.374;2022-08-19T09:06:49;8.05;;;5.22;;
32814;SDS011;19165;48.182;16.374;2022-08-19T09:09:22;8.50;;;5.30;;
32814;SDS011;19165;48.182;16.374;2022-08-19T09:11:56;18.15;;;5.38;;
32814;SDS011;19165;48.182;16.374;2022-08-19T09:14:37;10.38;;;5.40;;
32814;SDS011;19165;48.182;16.374;2022-08-19T09:17:07;13.23;;;5.20;;
32814;SDS011;19165;48.182;16.374;2022-08-19T09:19:35;10.82;;;5.07;;
32814;SDS011;19165;48.182;16.374;2022-08-19T09:22:01;8.85;;;4.80;;
32814;SDS011;19165;48.182;16.374;2022-08-19T09:24:27;8.55;;;4.60;;
32814;SDS011;19165;48.182;16.374;2022-08-19T09:26:53;9.18;;;5.28;;
32814;SDS011;19165;48.182;16.374;2022-08-19T09:29:19;6.95;;;4.63;;
32814;SDS011;19165;48.182;16.374;2022-08-19T09:31:47;13.55;;;7.45;;
32814;SDS011;19165;48.182;16.374;2022-08-19T09:34:14;10.13;;;4.60;;
32814;SDS011;19165;48.182;16.374;2022-08-19T09:36:41;11.45;;;5.30;;
32814;SDS011;19165;48.182;16.374;2022-08-19T09:39:07;15.35;;;12.30;;
32814;SDS011;19165;48.182;16.374;2022-08-19T09:41:33;11.77;;;5.18;;
32814;SDS011;19165;48.182;16.374;2022-08-19T09:43:59;9.20;;;4.80;;
32814;SDS011;19165;48.182;16.374;2022-08-19T09:46:26;13.45;;;4.75;;
32814;SDS011;19165;48.182;16.374;2022-08-19T09:48:56;12.90;;;4.82;;
32814;SDS011;19165;48.182;16.374;2022-08-19T09:51:24;12.80;;;4.70;;
32814;SDS011;19165;48.182;16.374;2022-08-19T09:53:53;8.90;;;4.95;;
32814;SDS011;19165;48.182;16.374;2022-08-19T09:56:20;10.50;;;5.00;;
32814;SDS011;19165;48.182;16.374;2022-08-19T09:58:47;14.95;;;4.97;;
32814;SDS011;19165;48.182;16.374;2022-08-19T10:01:18;11.68;;;5.05;;
32814;SDS011;19165;48.182;16.374;2022-08-19T10:03:46;8.73;;;4.80;;
32814;SDS011;19165;48.182;16.374;2022-08-19T10:06:15;12.02;;;5.22;;
32814;SDS011;19165;48.182;16.374;2022-08-19T10:08:48;10.27;;;5.75;;
32814;SDS011;19165;48.182;16.374;2022-08-19T10:11:14;9.82;;;5.35;;
32814;SDS011;19165;48.182;16.374;2022-08-19T10:13:42;10.43;;;5.00;;
32814;SDS011;19165;48.182;16.374;2022-08-19T10:16:10;12.40;;;4.78;;
32814;SDS011;19165;48.182;16.374;2022-08-19T10:18:39;7.95;;;4.70;;
32814;SDS011;19165;48.182;16.374;2022-08-19T10:21:10;9.43;;;5.18;;
32814;SDS011;19165;48.182;16.374;2022-08-19T10:23:39;11.45;;;5.03;;
32814;SDS011;19165;48.182;16.374;2022-08-19T10:26:09;12.77;;;5.50;;
32814;SDS011;19165;48.182;16.374;2022-08-19T10:28:35;6.60;;;5.50;;
32814;SDS011;19165;48.182;16.374;2022-08-19T10:31:05;10.65;;;5.60;;
32814;SDS011;19165;48.182;16.374;2022-08-19T10:33:33;10.07;;;5.22;;
32814;SDS011;19165;48.182;16.374;2022-08-19T10:36:00;12.70;;;5.95;;
32814;SDS011;19165;48.182;16.374;2022-08-19T10:38:26;15.63;;;5.80;;
32814;SDS011;19165;48.182;16.374;2022-08-19T10:40:55;13.10;;;5.80;;
32814;SDS011;19165;48.182;16.374;2022-08-19T10:43:21;11.45;;;6.65;;
32814;SDS011;19165;48.182;16.374;2022-08-19T10:45:48;18.10;;;7.25;;
32814;SDS011;19165;48.182;16.374;2022-08-19T10:48:19;13.55;;;6.13;;
32814;SDS011;19165;48.182;16.374;2022-08-19T10:50:44;13.10;;;6.82;;
32814;SDS011;19165;48.182;16.374;2022-08-19T10:53:29;10.18;;;6.05;;
32814;SDS011;19165;48.182;16.374;2022-08-19T10:55:56;15.63;;;6.63;;
32814;SDS011;19165;48.182;16.374;2022-08-19T10:58:41;19.73;;;7.43;;
32814;SDS011;19165;48.182;16.374;2022-08-19T11:01:06;19.23;;;5.80;;
32814;SDS011;19165;48.182;16.374;2022-08-19T11:03:32;10.68;;;6.10;;
32814;SDS011;19165;48.182;16.374;2022-08-19T11:05:59;27.90;;;5.65;;
32814;SDS011;19165;48.182;16.374;2022-08-19T11:08:25;12.82;;;5.13;;
32814;SDS011;19165;48.182;16.374;2022-08-19T11:10:52;16.02;;;5.75;;
32814;SDS011;19165;48.182;16.374;2022-08-19T11:13:23;12.98;;;5.90;;
32814;SDS011;19165;48.182;16.374;2022-08-19T11:15:56;16.17;;;5.47;;
32814;SDS011;19165;48.182;16.374;2022-08-19T11:18:23;14.93;;;6.10;;
32814;SDS011;19165;48.182;16.374;2022-08-19T11:20:49;16.65;;;5.68;;
32814;SDS011;19165;48.182;16.374;2022-08-19T11:23:15;15.82;;;5.25;;
32814;SDS011;19165;48.182;16.374;2022-08-19T11:25:42;15.25;;;5.93;;
32814;SDS011;19165;48.182;16.374;2022-08-19T11:28:08;20.58;;;5.43;;
32814;SDS011;19165;48.182;16.374;2022-08-19T11:30:35;10.27;;;5.20;;
32814;SDS011;19165;48.182;16.374;2022-08-19T11:33:02;16.00;;;5.00;;
32814;SDS011;19165;48.182;16.374;2022-08-19T11:35:28;39.60;;;5.80;;
32814;SDS011;19165;48.182;16.374;2022-08-19T11:37:54;20.30;;;5.30;;
32814;SDS011;19165;48.182;16.374;2022-08-19T11:40:23;18.70;;;5.30;;
32814;SDS011;19165;48.182;16.374;2022-08-19T11:42:49;21.08;;;5.60;;
32814;SDS011;19165;48.182;16.374;2022-08-19T11:45:21;21.33;;;4.88;;
32814;SDS011;19165;48.182;16.374;2022-08-19T11:47:48;23.90;;;5.85;;
32814;SDS011;19165;48.182;16.374;2022-08-19T11:50:15;25.00;;;7.43;;
32814;SDS011;19165;48.182;16.374;2022-08-19T11:52:41;25.30;;;7.55;;
32814;SDS011;19165;48.182;16.374;2022-08-19T11:55:08;19.67;;;6.03;;
32814;SDS011;19165;48.182;16.374;2022-08-19T11:57:34;16.98;;;5.43;;
32814;SDS011;19165;48.182;16.374;2022-08-19T12:00:00;21.60;;;7.05;;
32814;SDS011;19165;48.182;16.374;2022-08-19T12:02:30;17.00;;;6.40;;
32814;SDS011;19165;48.182;16.374;2022-08-19T12:04:57;16.98;;;6.22;;
32814;SDS011;19165;48.182;16.374;2022-08-19T12:07:23;14.50;;;5.60;;
32814;SDS011;19165;48.182;16.374;2022-08-19T12:09:49;15.30;;;5.13;;
32814;SDS011;19165;48.182;16.374;2022-08-19T12:12:15;18.48;;;5.68;;
32814;SDS011;19165;48.182;16.374;2022-08-19T12:14:41;15.05;;;5.10;;
32814;SDS011;19165;48.182;16.374;2022-08-19T12:17:07;13.45;;;5.20;;
32814;SDS011;19165;48.182;16.374;2022-08-19T12:19:35;15.82;;;5.28;;
32814;SDS011;19165;48.182;16.374;2022-08-19T12:22:03;16.92;;;5.10;;
32814;SDS011;19165;48.182;16.374;2022-08-19T12:24:30;16.38;;;5.38;;
32814;SDS011;19165;48.182;16.374;2022-08-19T12:26:57;21.25;;;5.30;;
32814;SDS011;19165;48.182;16.374;2022-08-19T12:29:26;15.77;;;5.88;;
32814;SDS011;19165;48.182;16.374;2022-08-19T12:31:55;14.07;;;5.10;;
32814;SDS011;19165;48.182;16.374;2022-08-19T12:34:27;23.23;;;5.60;;
32814;SDS011;19165;48.182;16.374;2022-08-19T12:36:55;15.93;;;5.70;;
32814;SDS011;19165;48.182;16.374;2022-08-19T12:39:23;13.32;;;4.95;;
32814;SDS011;19165;48.182;16.374;2022-08-19T12:41:49;15.15;;;5.00;;
32814;SDS011;19165;48.182;16.374;2022-08-19T12:44:15;12.07;;;4.97;;
32814;SDS011;19165;48.182;16.374;2022-08-19T12:46:42;12.65;;;5.03;;
32814;SDS011;19165;48.182;16.374;2022-08-19T12:49:07;15.25;;;5.45;;
32814;SDS011;19165;48.182;16.374;2022-08-19T12:51:33;17.33;;;6.85;;
32814;SDS011;19165;48.182;16.374;2022-08-19T12:53:59;17.05;;;6.63;;
32814;SDS011;19165;48.182;16.374;2022-08-19T12:56:28;18.23;;;6.95;;
32814;SDS011;19165;48.182;16.374;2022-08-19T12:58:53;14.90;;;6.03;;
32814;SDS011;19165;48.182;16.374;2022-08-19T13:01:20;17.38;;;5.95;;
32814;SDS011;19165;48.182;16.374;2022-08-19T13:03:46;17.75;;;6.55;;
32814;SDS011;19165;48.182;16.374;2022-08-19T13:06:13;16.63;;;6.38;;
32814;SDS011;19165;48.182;16.374;2022-08-19T13:08:40;20.75;;;7.07;;
32814;SDS011;19165;48.182;16.374;2022-08-19T13:11:12;19.42;;;6.07;;
32814;SDS011;19165;48.182;16.374;2022-08-19T13:13:43;20.10;;;5.63;;
32814;SDS011;19165;48.182;16.374;2022-08-19T13:16:11;18.65;;;5.80;;
32814;SDS011;19165;48.182;16.374;2022-08-19T13:18:38;16.20;;;5.30;;
32814;SDS011;19165;48.182;16.374;2022-08-19T13:21:06;19.95;;;5.88;;
32814;SDS011;19165;48.182;16.374;2022-08-19T13:23:34;16.75;;;5.93;;
32814;SDS011;19165;48.182;16.374;2022-08-19T13:26:01;17.85;;;5.97;;
32814;SDS011;19165;48.182;16.374;2022-08-19T13:28:30;19.85;;;5.47;;
32814;SDS011;19165;48.182;16.374;2022-08-19T13:31:17;15.00;;;6.18;;
32814;SDS011;19165;48.182;16.374;2022-08-19T13:34:02;14.98;;;7.68;;
32814;SDS011;19165;48.182;16.374;2022-08-19T13:36:29;20.38;;;6.68;;
32814;SDS011;19165;48.182;16.374;2022-08-19T13:38:55;24.85;;;6.25;;
32814;SDS011;19165;48.182;16.374;2022-08-19T13:41:21;15.65;;;5.72;;
32814;SDS011;19165;48.182;16.374;2022-08-19T13:43:47;19.00;;;7.45;;
32814;SDS011;19165;48.182;16.374;2022-08-19T13:46:14;16.35;;;7.03;;
32814;SDS011;19165;48.182;16.374;2022-08-19T13:48:41;15.93;;;6.93;;
32814;SDS011;19165;48.182;16.374;2022-08-19T13:51:08;20.65;;;7.65;;
32814;SDS011;19165;48.182;16.374;2022-08-19T13:53:35;30.27;;;8.60;;
32814;SDS011;19165;48.182;16.374;2022-08-19T13:56:04;16.77;;;5.88;;
32814;SDS011;19165;48.182;16.374;2022-08-19T13:58:31;15.95;;;6.00;;
32814;SDS011;19165;48.182;16.374;2022-08-19T14:00:57;21.88;;;7.32;;
32814;SDS011;19165;48.182;16.374;2022-08-19T14:03:24;19.55;;;7.68;;
32814;SDS011;19165;48.182;16.374;2022-08-19T14:05:51;18.30;;;6.55;;
32814;SDS011;19165;48.182;16.374;2022-08-19T14:08:17;20.67;;;8.18;;
32814;SDS011;19165;48.182;16.374;2022-08-19T14:10:43;15.65;;;6.43;;
32814;SDS011;19165;48.182;16.374;2022-08-19T14:13:12;16.13;;;6.63;;
32814;SDS011;19165;48.182;16.374;2022-08-19T14:15:39;16.02;;;6.22;;
32814;SDS011;19165;48.182;16.374;2022-08-19T14:18:05;19.05;;;5.88;;
32814;SDS011;19165;48.182;16.374;2022-08-19T14:20:33;15.45;;;5.68;;
32814;SDS011;19165;48.182;16.374;2022-08-19T14:23:01;12.32;;;5.00;;
32814;SDS011;19165;48.182;16.374;2022-08-19T14:25:29;17.00;;;5.78;;
32814;SDS011;19165;48.182;16.374;2022-08-19T14:27:56;15.00;;;5.38;;
32814;SDS011;19165;48.182;16.374;2022-08-19T14:30:23;14.43;;;4.97;;